Vremea acum in Bacau - Romania

Vrei sa afli care e starea vremii acum in Bacau - Romania? Dorim sa iti furnizam starea vremii pentru Bacau - Romania. Starea vremii Bacau - Romania pentru astazi.

Vremea acum in Bacau

Temperatura: 15 °C

Se simte ca: 13.7 °C
Innorat: 50 %
Precipitatii: 0 %
Presiune atmosferica: 1025 hPa
Umiditate: 44%
Vizibilitate: 10 km
Vantul bate din N cu 20.2 km/h

Evolutia vremii in Bacau pe ore

Ora: 12:00
Parțial noros
Temperatura: 13.5°C
Sansa de precipitatii: 0%
Ora Descriere Temp Se simte Precipitatii Umiditate Vant
00:00Parțial noros6.8°0%78%NNW 13.7 KM/H
01:00Parțial noros8.2°0%81%NNW 13.3 KM/H
02:00Parțial noros7.5°5.2°0%84%NNW 12.6 KM/H
03:00Parțial noros4.7°0%85%NNW 12.2 KM/H
04:00Parțial noros6.6°4.2°0%87%NNW 11.9 KM/H
05:00Parțial noros6.1°3.7°0%89%NNW 11.5 KM/H
06:00Parțial noros6.6°4.1°0%84%NNW 13 KM/H
07:00Parțial noros7.2°4.6°0%80%NNW 14 KM/H
08:00Parțial noros7.7°0%76%NNW 15.5 KM/H
09:00Parțial noros9.4°0%68%NNW 16.6 KM/H
10:00Parțial noros11.1°0%60%NNW 17.6 KM/H
11:00Parțial noros12.8°11°0%52%N 18.7 KM/H
12:00Parțial noros13.5°12°0%49%SW 17.6 KM/H
13:00Parțial noros14.2°12.9°0%45%ESE 16.9 KM/H
14:00Parțial noros14.9°13.9°0%41%N 15.8 KM/H
15:00Parțial noros13.8°12.9°0%44%N 13.7 KM/H
16:00Parțial noros12.8°11.8°0%47%NNE 11.2 KM/H
17:00Parțial noros11.7°10.8°0%50%NNE 9 KM/H
18:00Parțial noros10.6°9.8°0%54%ESE 7.9 KM/H
19:00Parțial noros9.5°8.7°0%57%SW 6.8 KM/H
20:00Parțial noros8.4°7.7°0%60%NNW 5.8 KM/H
21:00Parțial noros7.9°7.3°0%62%NW 5.4 KM/H
22:00Parțial noros7.4°6.9°0%64%NW 4.7 KM/H
23:00Parțial noros6.9°6.5°0%66%WNW 4.3 KM/H